| time (UTC) | temp C | wind direction | speed KPH | gust KPH | rain 1hr cm | rain 24hr cm | rain mn cm | humidity % | barometer mb |
| 20260509192506 | 22 | 38 | 6.4 | 17.7 | 0.00 | 0.00 | 0.00 | 34 | 1008.6 |
| 20260509192001 | 22 | 313 | 14.5 | 22.5 | 0.00 | 0.00 | 0.00 | 33 | 1008.5 |
| 20260509191456 | 22 | 319 | 6.4 | 9.7 | 0.00 | 0.00 | 0.00 | 34 | 1008.2 |
| 20260509190952 | 22 | 351 | 8.0 | 12.9 | 0.00 | 0.00 | 0.00 | 33 | 1008.4 |
| 20260509190449 | 22 | 324 | 12.9 | 16.1 | 0.00 | 0.00 | 0.00 | 31 | 1008.1 |
| 20260509185947 | 22 | 13 | 4.8 | 12.9 | 0.00 | 0.00 | 0.00 | 32 | 1008.3 |
| 20260509185444 | 22 | 12 | 1.6 | 17.7 | 0.00 | 0.00 | 0.00 | 33 | 1008.2 |
| 20260509184941 | 22 | 299 | 6.4 | 16.1 | 0.00 | 0.00 | 0.00 | 31 | 1008.1 |
| 20260509184439 | 22 | 24 | 6.4 | 11.3 | 0.00 | 0.00 | 0.00 | 31 | 1008.2 |
| 20260509183935 | 23 | 295 | 9.7 | 11.3 | 0.00 | 0.00 | 0.00 | 30 | 1008.2 |
| 20260509183434 | 23 | 339 | 9.7 | 20.9 | 0.00 | 0.00 | 0.00 | 30 | 1008.2 |
| 20260509182931 | 23 | 344 | 11.3 | 20.9 | 0.00 | 0.00 | 0.00 | 30 | 1008.0 |
| 20260509182427 | 23 | 290 | 8.0 | 14.5 | 0.00 | 0.00 | 0.00 | 32 | 1008.0 |
| 20260509181925 | 23 | 281 | 6.4 | 11.3 | 0.00 | 0.00 | 0.00 | 30 | 1008.1 |
| 20260509181423 | 22 | 338 | 9.7 | 12.9 | 0.00 | 0.00 | 0.00 | 31 | 1007.8 |
| 20260509180920 | 22 | 259 | 6.4 | 16.1 | 0.00 | 0.00 | 0.00 | 30 | 1007.9 |
| 20260509180415 | 22 | 35 | 9.7 | 14.5 | 0.00 | 0.00 | 0.00 | 31 | 1007.8 |
| 20260509175912 | 23 | 304 | 12.9 | 20.9 | 0.00 | 0.00 | 0.00 | 31 | 1007.8 |
| 20260509175408 | 23 | 321 | 12.9 | 17.7 | 0.00 | 0.00 | 0.00 | 30 | 1007.9 |
| 20260509174905 | 23 | 348 | 17.7 | 20.9 | 0.00 | 0.00 | 0.00 | 30 | 1007.8 |
| 20260509174401 | 22 | 16 | 4.8 | 14.5 | 0.00 | 0.00 | 0.00 | 31 | 1007.6 |
| 20260509173857 | 22 | 3 | 11.3 | 20.9 | 0.00 | 0.00 | 0.00 | 32 | 1007.6 |
| 20260509173352 | 22 | 28 | 3.2 | 17.7 | 0.00 | 0.00 | 0.00 | 31 | 1007.8 |
| 20260509172849 | 22 | 333 | 8.0 | 16.1 | 0.00 | 0.00 | 0.00 | 32 | 1007.9 |
| 20260509172346 | 23 | 353 | 8.0 | 17.7 | 0.00 | 0.00 | 0.00 | 31 | 1007.9 |
| 20260509171841 | 22 | 296 | 3.2 | 11.3 | 0.00 | 0.00 | 0.00 | 34 | 1007.7 |
| 20260509171337 | 22 | 302 | 4.8 | 4.8 | 0.00 | 0.00 | 0.00 | 31 | 1007.8 |
| 20260509170833 | 22 | 31 | 6.4 | 9.7 | 0.00 | 0.00 | 0.00 | 33 | 1008.0 |
| 20260509170329 | 22 | 269 | 4.8 | 9.7 | 0.00 | 0.00 | 0.00 | 32 | 1007.9 |
| 20260509165824 | 21 | 312 | 3.2 | 11.3 | 0.00 | 0.00 | 0.00 | 34 | 1008.0 |
| 20260509165319 | 22 | 333 | 6.4 | 11.3 | 0.00 | 0.00 | 0.00 | 33 | 1008.2 |
| 20260509164815 | 21 | 32 | 8.0 | 17.7 | 0.00 | 0.00 | 0.00 | 34 | 1008.2 |
| 20260509164312 | 21 | 345 | 9.7 | 16.1 | 0.00 | 0.00 | 0.00 | 31 | 1008.4 |
| 20260509163808 | 22 | 324 | 8.0 | 9.7 | 0.00 | 0.00 | 0.00 | 32 | 1008.3 |
| 20260509163304 | 21 | 13 | 12.9 | 22.5 | 0.00 | 0.00 | 0.00 | 33 | 1008.3 |
| 20260509162803 | 21 | 259 | 14.5 | 22.5 | 0.00 | 0.00 | 0.00 | 32 | 1008.3 |
| 20260509162256 | 21 | 315 | 4.8 | 12.9 | 0.00 | 0.00 | 0.00 | 33 | 1008.3 |
| 20260509161753 | 21 | 45 | 11.3 | 24.1 | 0.00 | 0.00 | 0.00 | 33 | 1008.1 |
| 20260509161249 | 21 | 338 | 6.4 | 20.9 | 0.00 | 0.00 | 0.00 | 35 | 1008.0 |
| 20260509160744 | 20 | 332 | 12.9 | 22.5 | 0.00 | 0.00 | 0.00 | 33 | 1008.0 |
| 20260509160241 | 20 | 26 | 12.9 | 25.7 | 0.00 | 0.00 | 0.00 | 34 | 1008.2 |
| 20260509155736 | 20 | 316 | 12.9 | 25.7 | 0.00 | 0.00 | 0.00 | 34 | 1008.1 |
| 20260509155228 | 20 | 313 | 11.3 | 25.7 | 0.00 | 0.00 | 0.00 | 35 | 1008.0 |
| 20260509154724 | 20 | 326 | 8.0 | 24.1 | 0.00 | 0.00 | 0.00 | 34 | 1008.1 |
| 20260509154221 | 20 | 295 | 11.3 | 14.5 | 0.00 | 0.00 | 0.00 | 34 | 1008.0 |
| 20260509153718 | 20 | 330 | 14.5 | 24.1 | 0.00 | 0.00 | 0.00 | 37 | 1008.1 |
| 20260509153214 | 20 | 330 | 9.7 | 20.9 | 0.00 | 0.00 | 0.00 | 38 | 1008.0 |
| 20260509152710 | 20 | 20 | 9.7 | 20.9 | 0.00 | 0.00 | 0.00 | 40 | 1007.9 |
| 20260509152207 | 20 | 20 | 19.3 | 35.4 | 0.00 | 0.00 | 0.00 | 39 | 1007.9 |
| 20260509151704 | 20 | 314 | 16.1 | 32.2 | 0.00 | 0.00 | 0.00 | 40 | 1007.6 |
| 20260509151201 | 21 | 350 | 17.7 | 25.7 | 0.00 | 0.00 | 0.00 | 38 | 1007.5 |
| 20260509150658 | 22 | 305 | 8.0 | 12.9 | 0.00 | 0.00 | 0.00 | 35 | 1007.4 |
| 20260509150157 | 21 | 341 | 19.3 | 24.1 | 0.00 | 0.00 | 0.00 | 33 | 1006.9 |
| 20260509145652 | 21 | 264 | 12.9 | 16.1 | 0.00 | 0.00 | 0.00 | 35 | 1006.7 |
| 20260509145148 | 21 | 236 | 4.8 | 12.9 | 0.00 | 0.00 | 0.00 | 34 | 1006.7 |
| 20260509144644 | 21 | 311 | 3.2 | 11.3 | 0.00 | 0.00 | 0.00 | 41 | 1006.6 |
| 20260509144141 | 20 | 280 | 0.0 | 4.8 | 0.00 | 0.00 | 0.00 | 42 | 1006.7 |
| 20260509143639 | 20 | 258 | 3.2 | 9.7 | 0.00 | 0.00 | 0.00 | 41 | 1006.9 |
| 20260509143136 | 20 | 262 | 4.8 | 11.3 | 0.00 | 0.00 | 0.00 | 42 | 1007.1 |
| 20260509142631 | 20 | 258 | 6.4 | 9.7 | 0.00 | 0.00 | 0.00 | 41 | 1007.0 |
| 20260509142128 | 20 | 281 | 1.6 | 4.8 | 0.00 | 0.00 | 0.00 | 42 | 1006.9 |
| 20260509141624 | 20 | 289 | 1.6 | 4.8 | 0.00 | 0.00 | 0.00 | 44 | 1006.9 |
| 20260509141120 | 19 | 227 | 1.6 | 11.3 | 0.00 | 0.00 | 0.00 | 44 | 1007.1 |
| 20260509140617 | 18 | 246 | 4.8 | 9.7 | 0.00 | 0.00 | 0.00 | 44 | 1007.1 |
| 20260509140115 | 18 | 278 | 3.2 | 8.0 | 0.00 | 0.00 | 0.00 | 49 | 1006.9 |
| 20260509135612 | 17 | 260 | 4.8 | 9.7 | 0.00 | 0.00 | 0.00 | 52 | 1007.0 |
| 20260509135111 | 17 | 273 | 1.6 | 8.0 | 0.00 | 0.00 | 0.00 | 56 | 1007.0 |
| 20260509134607 | 16 | 243 | 1.6 | 4.8 | 0.00 | 0.00 | 0.00 | 65 | 1006.8 |
| 20260509134104 | 15 | 223 | 3.2 | 4.8 | 0.00 | 0.00 | 0.00 | 67 | 1006.7 |
| 20260509133601 | 15 | 226 | 4.8 | 4.8 | 0.00 | 0.00 | 0.00 | 68 | 1006.8 |
| 20260509133059 | 15 | 234 | 1.6 | 4.8 | 0.00 | 0.00 | 0.00 | 68 | 1006.6 |
| 20260509132557 | 14 | 268 | 1.6 | 4.8 | 0.00 | 0.00 | 0.00 | 69 | 1006.7 |
| 20260509132055 | 14 | 202 | 6.4 | 8.0 | 0.00 | 0.00 | 0.00 | 69 | 1006.7 |
| 20260509131551 | 13 | 210 | 6.4 | 9.7 | 0.00 | 0.00 | 0.00 | 69 | 1006.7 |
| 20260509131048 | 13 | 218 | 6.4 | 8.0 | 0.00 | 0.00 | 0.00 | 70 | 1006.8 |
| 20260509130543 | 13 | 224 | 6.4 | 8.0 | 0.00 | 0.00 | 0.00 | 70 | 1006.8 |
| 20260509130041 | 13 | 210 | 4.8 | 4.8 | 0.00 | 0.00 | 0.00 | 69 | 1006.9 |
| 20260509125537 | 12 | 266 | 1.6 | 3.2 | 0.00 | 0.00 | 0.00 | 71 | 1006.8 |
| 20260509125033 | 12 | 256 | 1.6 | 4.8 | 0.00 | 0.00 | 0.00 | 71 | 1006.7 |
| 20260509124530 | 12 | 259 | 3.2 | 3.2 | 0.00 | 0.00 | 0.00 | 73 | 1006.6 |
| 20260509124027 | 11 | 249 | 1.6 | 3.2 | 0.00 | 0.00 | 0.00 | 75 | 1006.6 |
| 20260509123525 | 11 | 302 | 0.0 | 3.2 | 0.00 | 0.00 | 0.00 | 76 | 1006.9 |
| 20260509123016 | 11 | 269 | 0.0 | 1.6 | 0.00 | 0.00 | 0.00 | 77 | 1006.8 |
| 20260509122513 | 10 | 236 | 1.6 | 4.8 | 0.00 | 0.00 | 0.00 | 78 | 1006.8 |
| 20260509122009 | 11 | 231 | 3.2 | 3.2 | 0.00 | 0.00 | 0.00 | 80 | 1006.3 |
| 20260509121506 | 11 | 224 | 3.2 | 3.2 | 0.00 | 0.00 | 0.00 | 73 | 1006.3 |
| 20260509121004 | 11 | 243 | 1.6 | 3.2 | 0.00 | 0.00 | 0.00 | 75 | 1006.2 |
| 20260509120502 | 10 | 252 | 3.2 | 3.2 | 0.00 | 0.00 | 0.00 | 76 | 1006.2 |
| 20260509120000 | 10 | 259 | 1.6 | 3.2 | 0.00 | 0.00 | 0.00 | 77 | 1006.3 |
| 20260509115456 | 10 | 243 | 3.2 | 4.8 | 0.00 | 0.00 | 0.00 | 78 | 1006.2 |
| 20260509114954 | 10 | 249 | 4.8 | 8.0 | 0.00 | 0.00 | 0.00 | 78 | 1006.1 |
| 20260509114452 | 10 | 251 | 3.2 | 4.8 | 0.00 | 0.00 | 0.00 | 78 | 1006.0 |
| 20260509113951 | 10 | 280 | 1.6 | 1.6 | 0.00 | 0.00 | 0.00 | 80 | 1005.8 |
| 20260509113448 | 9 | 281 | 0.0 | 1.6 | 0.00 | 0.00 | 0.00 | 81 | 1005.8 |
| 20260509112945 | 9 | 275 | 0.0 | 0.0 | 0.00 | 0.00 | 0.00 | 83 | 1005.8 |
| 20260509112443 | 9 | 275 | 0.0 | 1.6 | 0.00 | 0.00 | 0.00 | 84 | 1005.8 |
| 20260509111939 | 9 | 274 | 1.6 | 3.2 | 0.00 | 0.00 | 0.00 | 84 | 1005.9 |
| 20260509111437 | 9 | 286 | 1.6 | 3.2 | 0.00 | 0.00 | 0.00 | 84 | 1006.0 |
| 20260509110934 | 9 | 299 | 3.2 | 4.8 | 0.00 | 0.00 | 0.00 | 85 | 1005.9 |
| 20260509110429 | 9 | 292 | 3.2 | 3.2 | 0.00 | 0.00 | 0.00 | 85 | 1005.9 |
| 20260509105928 | 9 | 270 | 1.6 | 3.2 | 0.00 | 0.00 | 0.00 | 86 | 1005.6 |
| 20260509105426 | 9 | 292 | 4.8 | 4.8 | 0.00 | 0.00 | 0.00 | 87 | 1005.8 |
| 20260509104923 | 9 | 298 | 3.2 | 9.7 | 0.00 | 0.00 | 0.00 | 87 | 1005.9 |
| 20260509104420 | 9 | 290 | 4.8 | 8.0 | 0.00 | 0.00 | 0.00 | 86 | 1005.7 |
| 20260509103917 | 9 | 293 | 4.8 | 4.8 | 0.00 | 0.00 | 0.00 | 86 | 1005.9 |
| 20260509103414 | 9 | 293 | 3.2 | 4.8 | 0.00 | 0.00 | 0.00 | 86 | 1005.7 |
| 20260509102913 | 9 | 301 | 1.6 | 3.2 | 0.00 | 0.00 | 0.00 | 87 | 1005.6 |
| 20260509102410 | 10 | 233 | 3.2 | 4.8 | 0.00 | 0.00 | 0.00 | 86 | 1005.2 |
| 20260509101905 | 10 | 275 | 1.6 | 3.2 | 0.00 | 0.00 | 0.00 | 85 | 1005.2 |
| 20260509101401 | 10 | 277 | 0.0 | 1.6 | 0.00 | 0.00 | 0.00 | 85 | 1005.3 |
| 20260509100900 | 10 | 277 | 0.0 | 0.0 | 0.00 | 0.00 | 0.00 | 85 | 1005.4 |
| 20260509100356 | 10 | 277 | 0.0 | 1.6 | 0.00 | 0.00 | 0.00 | 85 | 1005.4 |
| 20260509095853 | 10 | 277 | 0.0 | 1.6 | 0.00 | 0.00 | 0.00 | 85 | 1005.5 |
| 20260509095351 | 10 | 278 | 1.6 | 3.2 | 0.00 | 0.00 | 0.00 | 85 | 1005.7 |
| 20260509094847 | 10 | 276 | 0.0 | 1.6 | 0.00 | 0.00 | 0.00 | 86 | 1005.5 |
| 20260509094344 | 10 | 275 | 0.0 | 1.6 | 0.00 | 0.00 | 0.00 | 85 | 1005.5 |
| 20260509093842 | 10 | 275 | 1.6 | 1.6 | 0.00 | 0.00 | 0.00 | 85 | 1005.8 |
| 20260509093338 | 10 | 280 | 0.0 | 0.0 | 0.00 | 0.00 | 0.00 | 85 | 1005.4 |
| 20260509092837 | 10 | 281 | 0.0 | 1.6 | 0.00 | 0.00 | 0.00 | 85 | 1005.5 |
| 20260509092335 | 10 | 285 | 0.0 | 3.2 | 0.00 | 0.00 | 0.00 | 86 | 1005.4 |
| 20260509091832 | 11 | 284 | 1.6 | 3.2 | 0.00 | 0.00 | 0.00 | 85 | 1005.4 |
| 20260509091329 | 11 | 292 | 1.6 | 1.6 | 0.00 | 0.00 | 0.00 | 86 | 1005.3 |
| 20260509090826 | 11 | 286 | 0.0 | 1.6 | 0.00 | 0.00 | 0.00 | 86 | 1005.4 |
| 20260509090324 | 11 | 290 | 1.6 | 3.2 | 0.00 | 0.00 | 0.00 | 85 | 1005.4 |
| 20260509085821 | 11 | 281 | 1.6 | 4.8 | 0.00 | 0.00 | 0.00 | 85 | 1005.5 |
| 20260509085318 | 11 | 296 | 1.6 | 4.8 | 0.00 | 0.00 | 0.00 | 85 | 1005.3 |
| 20260509084814 | 11 | 291 | 3.2 | 8.0 | 0.00 | 0.00 | 0.00 | 85 | 1005.5 |
| 20260509084311 | 11 | 275 | 3.2 | 8.0 | 0.00 | 0.00 | 0.00 | 84 | 1005.5 |
| 20260509083809 | 11 | 303 | 1.6 | 4.8 | 0.00 | 0.00 | 0.00 | 85 | 1005.5 |
| 20260509083306 | 11 | 297 | 3.2 | 4.8 | 0.00 | 0.00 | 0.00 | 84 | 1005.4 |
| 20260509082803 | 12 | 335 | 0.0 | 3.2 | 0.00 | 0.00 | 0.00 | 83 | 1005.3 |
| 20260509082259 | 11 | 264 | 3.2 | 3.2 | 0.00 | 0.00 | 0.00 | 83 | 1005.3 |
| 20260509081756 | 11 | 284 | 6.4 | 8.0 | 0.00 | 0.00 | 0.00 | 84 | 1005.3 |
| 20260509081253 | 11 | 296 | 1.6 | 3.2 | 0.00 | 0.00 | 0.00 | 84 | 1005.4 |
| 20260509080752 | 12 | 281 | 0.0 | 3.2 | 0.00 | 0.00 | 0.00 | 83 | 1005.4 |
| 20260509080249 | 12 | 302 | 1.6 | 3.2 | 0.00 | 0.00 | 0.00 | 83 | 1005.4 |
| 20260509075747 | 12 | 271 | 1.6 | 3.2 | 0.00 | 0.00 | 0.00 | 83 | 1005.4 |
| 20260509075244 | 11 | 283 | 1.6 | 3.2 | 0.00 | 0.00 | 0.00 | 84 | 1005.3 |
| 20260509074741 | 11 | 275 | 0.0 | 3.2 | 0.00 | 0.00 | 0.00 | 84 | 1005.3 |
| 20260509074239 | 12 | 284 | 0.0 | 1.6 | 0.00 | 0.00 | 0.00 | 84 | 1005.4 |
| 20260509073735 | 12 | 280 | 0.0 | 3.2 | 0.00 | 0.00 | 0.00 | 84 | 1005.3 |
| 20260509073231 | 12 | 231 | 1.6 | 3.2 | 0.00 | 0.00 | 0.00 | 84 | 1005.4 |
| 20260509072728 | 11 | 245 | 3.2 | 3.2 | 0.00 | 0.00 | 0.00 | 84 | 1005.5 |
| 20260509072225 | 12 | 237 | 1.6 | 4.8 | 0.00 | 0.00 | 0.00 | 84 | 1005.5 |
| 20260509071721 | 12 | 228 | 3.2 | 4.8 | 0.00 | 0.00 | 0.00 | 82 | 1005.4 |
| 20260509071219 | 12 | 212 | 4.8 | 4.8 | 0.00 | 0.00 | 0.00 | 82 | 1005.6 |
| 20260509070715 | 12 | 244 | 3.2 | 4.8 | 0.00 | 0.00 | 0.00 | 82 | 1005.7 |
| 20260509070212 | 12 | 261 | 1.6 | 8.0 | 0.00 | 0.00 | 0.00 | 81 | 1005.6 |
| 20260509065708 | 13 | 270 | 1.6 | 4.8 | 0.00 | 0.00 | 0.00 | 81 | 1005.8 |
| 20260509065204 | 13 | 239 | 4.8 | 8.0 | 0.00 | 0.00 | 0.00 | 80 | 1005.8 |
| 20260509064701 | 13 | 243 | 1.6 | 9.7 | 0.00 | 0.00 | 0.00 | 80 | 1005.7 |
| 20260509064159 | 13 | 244 | 4.8 | 8.0 | 0.00 | 0.00 | 0.00 | 81 | 1005.7 |
| 20260509063656 | 13 | 289 | 1.6 | 4.8 | 0.00 | 0.00 | 0.00 | 81 | 1005.9 |
| 20260509063152 | 12 | 254 | 4.8 | 4.8 | 0.00 | 0.00 | 0.00 | 82 | 1006.0 |
| 20260509062649 | 13 | 238 | 3.2 | 4.8 | 0.00 | 0.00 | 0.00 | 82 | 1005.8 |
| 20260509062146 | 12 | 223 | 4.8 | 8.0 | 0.00 | 0.00 | 0.00 | 84 | 1005.9 |
| 20260509061643 | 12 | 270 | 1.6 | 4.8 | 0.00 | 0.00 | 0.00 | 84 | 1005.8 |
| 20260509061141 | 12 | 295 | 1.6 | 4.8 | 0.00 | 0.00 | 0.00 | 84 | 1005.9 |
| 20260509060638 | 12 | 223 | 3.2 | 4.8 | 0.00 | 0.00 | 0.00 | 85 | 1005.6 |
| 20260509060134 | 12 | 264 | 3.2 | 3.2 | 0.00 | 0.00 | 0.00 | 86 | 1005.7 |
| 20260509055630 | 12 | 226 | 4.8 | 8.0 | 0.00 | 0.00 | 0.00 | 86 | 1005.6 |
| 20260509055126 | 12 | 237 | 3.2 | 3.2 | 0.00 | 0.00 | 0.00 | 86 | 1005.5 |
| 20260509054623 | 12 | 250 | 1.6 | 3.2 | 0.00 | 0.00 | 0.00 | 86 | 1005.6 |
| 20260509054120 | 12 | 272 | 1.6 | 3.2 | 0.00 | 0.00 | 0.00 | 86 | 1005.5 |
| 20260509053619 | 12 | 226 | 3.2 | 4.8 | 0.00 | 0.00 | 0.00 | 86 | 1005.6 |
| 20260509053115 | 12 | 233 | 3.2 | 4.8 | 0.00 | 0.00 | 0.00 | 86 | 1005.5 |
| 20260509052613 | 12 | 225 | 4.8 | 8.0 | 0.00 | 0.00 | 0.00 | 85 | 1005.4 |
| 20260509052111 | 13 | 215 | 6.4 | 8.0 | 0.00 | 0.00 | 0.00 | 85 | 1005.5 |
| 20260509051608 | 13 | 225 | 4.8 | 4.8 | 0.00 | 0.00 | 0.00 | 84 | 1005.7 |
| 20260509051105 | 13 | 216 | 4.8 | 8.0 | 0.00 | 0.00 | 0.00 | 84 | 1005.4 |
| 20260509050602 | 13 | 260 | 4.8 | 8.0 | 0.00 | 0.00 | 0.00 | 84 | 1005.7 |
| 20260509050058 | 13 | 237 | 4.8 | 8.0 | 0.00 | 0.00 | 0.00 | 83 | 1005.7 |
| 20260509045556 | 13 | 214 | 4.8 | 9.7 | 0.00 | 0.00 | 0.00 | 83 | 1005.7 |
| 20260509045053 | 13 | 220 | 8.0 | 9.7 | 0.00 | 0.00 | 0.00 | 82 | 1005.7 |
| 20260509044550 | 14 | 219 | 6.4 | 11.3 | 0.00 | 0.00 | 0.00 | 81 | 1005.7 |
| 20260509044047 | 14 | 209 | 6.4 | 11.3 | 0.00 | 0.00 | 0.00 | 81 | 1005.6 |
| 20260509043544 | 14 | 188 | 8.0 | 12.9 | 0.00 | 0.00 | 0.00 | 80 | 1005.5 |
| 20260509043039 | 14 | 199 | 8.0 | 12.9 | 0.00 | 0.00 | 0.00 | 80 | 1005.5 |
| 20260509042536 | 15 | 212 | 8.0 | 11.3 | 0.00 | 0.00 | 0.00 | 79 | 1005.5 |
| 20260509042032 | 15 | 209 | 8.0 | 11.3 | 0.00 | 0.00 | 0.00 | 79 | 1005.6 |
| 20260509041529 | 15 | 212 | 6.4 | 14.5 | 0.00 | 0.00 | 0.00 | 79 | 1005.6 |
| 20260509041027 | 15 | 214 | 8.0 | 12.9 | 0.00 | 0.00 | 0.00 | 78 | 1005.8 |
| 20260509040525 | 15 | 220 | 9.7 | 14.5 | 0.00 | 0.00 | 0.00 | 78 | 1005.8 |
| 20260509040022 | 15 | 218 | 8.0 | 12.9 | 0.00 | 0.00 | 0.00 | 78 | 1005.7 |
| 20260509035518 | 15 | 206 | 8.0 | 11.3 | 0.00 | 0.00 | 0.00 | 77 | 1005.9 |
| 20260509035014 | 15 | 209 | 9.7 | 12.9 | 0.00 | 0.00 | 0.00 | 77 | 1005.7 |
| 20260509034513 | 15 | 223 | 8.0 | 11.3 | 0.00 | 0.00 | 0.00 | 76 | 1005.9 |
| 20260509034009 | 15 | 228 | 6.4 | 12.9 | 0.00 | 0.00 | 0.00 | 76 | 1005.8 |
| 20260509033506 | 15 | 215 | 9.7 | 11.3 | 0.00 | 0.00 | 0.00 | 75 | 1005.7 |
| 20260509033003 | 16 | 229 | 8.0 | 14.5 | 0.00 | 0.00 | 0.00 | 75 | 1005.9 |
| 20260509032500 | 16 | 218 | 9.7 | 12.9 | 0.00 | 0.00 | 0.00 | 74 | 1005.9 |
| 20260509031958 | 16 | 219 | 11.3 | 12.9 | 0.00 | 0.00 | 0.00 | 73 | 1005.9 |
| 20260509031455 | 16 | 215 | 11.3 | 12.9 | 0.00 | 0.00 | 0.00 | 72 | 1005.8 |
| 20260509030952 | 16 | 211 | 11.3 | 14.5 | 0.00 | 0.00 | 0.00 | 72 | 1005.9 |
| 20260509030450 | 17 | 197 | 8.0 | 12.9 | 0.00 | 0.00 | 0.00 | 70 | 1005.8 |
| 20260509025947 | 17 | 201 | 8.0 | 11.3 | 0.00 | 0.00 | 0.00 | 71 | 1006.0 |
| 20260509025442 | 17 | 248 | 1.6 | 4.8 | 0.00 | 0.00 | 0.00 | 70 | 1006.3 |
| 20260509024938 | 17 | 210 | 8.0 | 11.3 | 0.00 | 0.00 | 0.00 | 70 | 1005.9 |
| 20260509024434 | 17 | 207 | 8.0 | 12.9 | 0.00 | 0.00 | 0.00 | 69 | 1006.1 |
| 20260509023931 | 17 | 224 | 11.3 | 14.5 | 0.00 | 0.00 | 0.00 | 68 | 1005.7 |
| 20260509023428 | 17 | 237 | 11.3 | 16.1 | 0.00 | 0.00 | 0.00 | 67 | 1005.6 |
| 20260509022925 | 17 | 233 | 8.0 | 12.9 | 0.00 | 0.00 | 0.00 | 66 | 1005.6 |
| 20260509022422 | 17 | 222 | 12.9 | 20.9 | 0.00 | 0.00 | 0.00 | 65 | 1005.3 |
| 20260509021920 | 17 | 210 | 9.7 | 12.9 | 0.00 | 0.00 | 0.00 | 66 | 1005.5 |
| 20260509021416 | 18 | 215 | 12.9 | 16.1 | 0.00 | 0.00 | 0.00 | 65 | 1005.3 |
| 20260509020914 | 18 | 217 | 14.5 | 20.9 | 0.00 | 0.00 | 0.00 | 64 | 1005.1 |
| 20260509020412 | 18 | 214 | 8.0 | 12.9 | 0.00 | 0.00 | 0.00 | 61 | 1004.9 |
| 20260509015909 | 18 | 232 | 14.5 | 20.9 | 0.00 | 0.00 | 0.00 | 61 | 1005.2 |
| 20260509015408 | 18 | 233 | 6.4 | 11.3 | 0.00 | 0.00 | 0.00 | 58 | 1005.2 |
| 20260509014903 | 18 | 240 | 8.0 | 17.7 | 0.00 | 0.00 | 0.00 | 57 | 1005.4 |
| 20260509014400 | 18 | 240 | 11.3 | 16.1 | 0.00 | 0.00 | 0.00 | 55 | 1006.0 |
| 20260509013857 | 18 | 217 | 6.4 | 9.7 | 0.00 | 0.00 | 0.00 | 54 | 1005.7 |
| 20260509013354 | 18 | 232 | 4.8 | 9.7 | 0.00 | 0.00 | 0.00 | 53 | 1005.4 |
| 20260509012849 | 19 | 247 | 6.4 | 9.7 | 0.00 | 0.00 | 0.00 | 52 | 1005.2 |
| 20260509012346 | 19 | 225 | 6.4 | 9.7 | 0.00 | 0.00 | 0.00 | 51 | 1004.9 |
| 20260509011844 | 19 | 225 | 4.8 | 8.0 | 0.00 | 0.00 | 0.00 | 52 | 1004.7 |
| 20260509011341 | 19 | 272 | 1.6 | 1.6 | 0.00 | 0.00 | 0.00 | 53 | 1004.7 |
| 20260509010839 | 19 | 229 | 3.2 | 8.0 | 0.00 | 0.00 | 0.00 | 52 | 1004.7 |
| 20260509010336 | 20 | 228 | 8.0 | 9.7 | 0.00 | 0.00 | 0.00 | 51 | 1004.8 |
| 20260509005827 | 20 | 226 | 8.0 | 11.3 | 0.00 | 0.00 | 0.00 | 50 | 1004.7 |
| 20260509005325 | 20 | 234 | 3.2 | 9.7 | 0.00 | 0.00 | 0.00 | 51 | 1004.9 |
| 20260509004820 | 20 | 241 | 6.4 | 8.0 | 0.00 | 0.00 | 0.00 | 49 | 1004.8 |
| 20260509004316 | 20 | 228 | 9.7 | 12.9 | 0.00 | 0.00 | 0.00 | 48 | 1004.7 |
| 20260509003814 | 20 | 212 | 8.0 | 12.9 | 0.00 | 0.00 | 0.00 | 48 | 1004.8 |
| 20260509003311 | 20 | 228 | 4.8 | 9.7 | 0.00 | 0.00 | 0.00 | 48 | 1004.6 |
| 20260509002803 | 21 | 220 | 8.0 | 12.9 | 0.00 | 0.00 | 0.00 | 48 | 1004.6 |
| 20260509002301 | 21 | 209 | 11.3 | 14.5 | 0.00 | 0.00 | 0.00 | 46 | 1004.5 |
| 20260509001758 | 21 | 231 | 9.7 | 11.3 | 0.00 | 0.00 | 0.00 | 47 | 1004.5 |
| 20260509001254 | 21 | 224 | 6.4 | 12.9 | 0.00 | 0.00 | 0.00 | 46 | 1004.4 |
| 20260509000752 | 21 | 152 | 4.8 | 17.7 | 0.00 | 0.00 | 0.00 | 46 | 1004.4 |
| 20260509000248 | 21 | 232 | 9.7 | 16.1 | 0.00 | 0.00 | 0.00 | 45 | 1004.6 |
| 20260508235746 | 21 | 211 | 8.0 | 14.5 | 0.00 | 0.00 | 0.00 | 44 | 1004.5 |
| 20260508235242 | 22 | 206 | 9.7 | 12.9 | 0.00 | 0.00 | 0.00 | 40 | 1004.5 |
| 20260508234740 | 22 | 217 | 9.7 | 20.9 | 0.00 | 0.00 | 0.00 | 38 | 1004.6 |
| 20260508234235 | 22 | 217 | 8.0 | 17.7 | 0.00 | 0.00 | 0.00 | 37 | 1004.6 |
| 20260508233735 | 22 | 213 | 11.3 | 14.5 | 0.00 | 0.00 | 0.00 | 34 | 1004.6 |
| 20260508233232 | 23 | 220 | 8.0 | 11.3 | 0.00 | 0.00 | 0.00 | 36 | 1004.7 |
| 20260508232729 | 23 | 255 | 6.4 | 11.3 | 0.00 | 0.00 | 0.00 | 34 | 1004.7 |
| 20260508232226 | 23 | 206 | 6.4 | 11.3 | 0.00 | 0.00 | 0.00 | 35 | 1004.9 |
| 20260508231724 | 22 | 261 | 4.8 | 11.3 | 0.00 | 0.00 | 0.00 | 33 | 1005.0 |
| 20260508231220 | 22 | 251 | 3.2 | 8.0 | 0.00 | 0.00 | 0.00 | 37 | 1004.8 |
| 20260508230717 | 22 | 242 | 6.4 | 11.3 | 0.00 | 0.00 | 0.00 | 38 | 1005.0 |
| 20260508230213 | 23 | 230 | 4.8 | 11.3 | 0.00 | 0.00 | 0.00 | 36 | 1004.8 |
| 20260508225712 | 22 | 235 | 6.4 | 14.5 | 0.00 | 0.00 | 0.00 | 35 | 1005.0 |
| 20260508225207 | 23 | 206 | 9.7 | 14.5 | 0.00 | 0.00 | 0.00 | 35 | 1005.0 |
| 20260508224706 | 23 | 269 | 3.2 | 8.0 | 0.00 | 0.00 | 0.00 | 37 | 1005.1 |
| 20260508224203 | 23 | 175 | 8.0 | 11.3 | 0.00 | 0.00 | 0.00 | 37 | 1005.2 |
| 20260508223700 | 23 | 216 | 4.8 | 14.5 | 0.00 | 0.00 | 0.00 | 37 | 1005.1 |
| 20260508223157 | 22 | 221 | 6.4 | 11.3 | 0.00 | 0.00 | 0.00 | 37 | 1005.1 |
| 20260508222655 | 22 | 214 | 8.0 | 11.3 | 0.00 | 0.00 | 0.00 | 36 | 1005.2 |
| 20260508222152 | 23 | 213 | 8.0 | 12.9 | 0.00 | 0.00 | 0.00 | 37 | 1005.1 |
| 20260508221648 | 22 | 217 | 6.4 | 11.3 | 0.00 | 0.00 | 0.00 | 36 | 1005.2 |
| 20260508221144 | 23 | 232 | 6.4 | 9.7 | 0.00 | 0.00 | 0.00 | 36 | 1005.3 |
| 20260508220641 | 23 | 259 | 3.2 | 11.3 | 0.00 | 0.00 | 0.00 | 36 | 1005.3 |
| 20260508220137 | 22 | 228 | 8.0 | 11.3 | 0.00 | 0.00 | 0.00 | 34 | 1005.2 |
| 20260508215634 | 23 | 206 | 12.9 | 14.5 | 0.00 | 0.00 | 0.00 | 33 | 1005.3 |
| 20260508215131 | 23 | 208 | 9.7 | 14.5 | 0.00 | 0.00 | 0.00 | 36 | 1005.5 |
| 20260508214628 | 22 | 245 | 6.4 | 11.3 | 0.00 | 0.00 | 0.00 | 35 | 1005.4 |
| 20260508214125 | 23 | 220 | 8.0 | 9.7 | 0.00 | 0.00 | 0.00 | 35 | 1005.5 |
| 20260508213622 | 23 | 220 | 9.7 | 16.1 | 0.00 | 0.00 | 0.00 | 34 | 1005.6 |
| 20260508213117 | 23 | 224 | 8.0 | 14.5 | 0.00 | 0.00 | 0.00 | 35 | 1005.5 |
| 20260508212614 | 23 | 222 | 8.0 | 11.3 | 0.00 | 0.00 | 0.00 | 33 | 1005.7 |
| 20260508212111 | 23 | 222 | 8.0 | 11.3 | 0.00 | 0.00 | 0.00 | 33 | 1005.7 |
| 20260508211606 | 23 | 274 | 4.8 | 8.0 | 0.00 | 0.00 | 0.00 | 32 | 1005.8 |
| 20260508211103 | 23 | 321 | 0.0 | 9.7 | 0.00 | 0.00 | 0.00 | 32 | 1005.7 |
| 20260508210559 | 23 | 196 | 3.2 | 4.8 | 0.00 | 0.00 | 0.00 | 28 | 1005.7 |
| 20260508210057 | 22 | 285 | 0.0 | 1.6 | 0.00 | 0.00 | 0.00 | 29 | 1005.7 |
| 20260508205554 | 22 | 280 | 4.8 | 4.8 | 0.00 | 0.00 | 0.00 | 28 | 1005.9 |
| 20260508205050 | 23 | 290 | 11.3 | 12.9 | 0.00 | 0.00 | 0.00 | 28 | 1005.9 |
| 20260508204547 | 23 | 303 | 4.8 | 14.5 | 0.00 | 0.00 | 0.00 | 28 | 1006.0 |
| 20260508204042 | 24 | 313 | 6.4 | 14.5 | 0.00 | 0.00 | 0.00 | 27 | 1006.1 |
| 20260508203539 | 24 | 354 | 3.2 | 3.2 | 0.00 | 0.00 | 0.00 | 28 | 1006.0 |
| 20260508203035 | 23 | 280 | 3.2 | 8.0 | 0.00 | 0.00 | 0.00 | 29 | 1006.2 |
| 20260508202532 | 23 | 249 | 6.4 | 14.5 | 0.00 | 0.00 | 0.00 | 27 | 1006.2 |
| 20260508202029 | 24 | 252 | 6.4 | 9.7 | 0.00 | 0.00 | 0.00 | 27 | 1006.6 |
| 20260508201525 | 24 | 281 | 1.6 | 4.8 | 0.00 | 0.00 | 0.00 | 31 | 1006.4 |
| 20260508201022 | 23 | 257 | 3.2 | 12.9 | 0.00 | 0.00 | 0.00 | 30 | 1006.6 |
| 20260508200519 | 23 | 259 | 1.6 | 11.3 | 0.00 | 0.00 | 0.00 | 29 | 1006.6 |
| 20260508200015 | 22 | 40 | 4.8 | 9.7 | 0.00 | 0.00 | 0.00 | 29 | 1006.4 |
| 20260508195512 | 23 | 14 | 3.2 | 8.0 | 0.00 | 0.00 | 0.00 | 30 | 1006.6 |
| 20260508195008 | 25 | 280 | 3.2 | 11.3 | 0.00 | 0.00 | 0.00 | 28 | 1006.7 |
| 20260508194505 | 23 | 270 | 1.6 | 3.2 | 0.00 | 0.00 | 0.00 | 30 | 1006.7 |
| 20260508194002 | 23 | 269 | 1.6 | 4.8 | 0.00 | 0.00 | 0.00 | 29 | 1006.9 |
| 20260508193459 | 22 | 290 | 3.2 | 11.3 | 0.00 | 0.00 | 0.00 | 28 | 1007.0 |
| 20260508192955 | 22 | 297 | 4.8 | 8.0 | 0.00 | 0.00 | 0.00 | 30 | 1007.0 |